createdAt,value
2019-01-23T00:01:59.514Z,-6.40
2019-01-23T00:04:00.861Z,-6.40
2019-01-23T00:06:02.959Z,-6.40
2019-01-23T00:08:04.420Z,-6.40
2019-01-23T00:10:06.287Z,-6.50
2019-01-23T00:12:07.765Z,-6.40
2019-01-23T00:14:09.135Z,-6.50
2019-01-23T00:16:10.498Z,-6.50
2019-01-23T00:18:12.086Z,-6.50
2019-01-23T00:20:13.440Z,-6.50
2019-01-23T00:22:14.809Z,-6.50
2019-01-23T00:24:16.398Z,-6.50
2019-01-23T00:26:17.766Z,-6.50
2019-01-23T00:28:19.123Z,-6.50
2019-01-23T00:30:20.939Z,-6.60
2019-01-23T00:32:22.311Z,-6.60
2019-01-23T00:34:23.679Z,-6.60
2019-01-23T00:36:25.270Z,-6.60
2019-01-23T00:38:26.623Z,-6.70
2019-01-23T00:40:28.040Z,-6.70
2019-01-23T00:42:29.436Z,-6.70
2019-01-23T00:44:30.798Z,-6.70
2019-01-23T00:46:32.162Z,-6.70
2019-01-23T00:48:33.743Z,-6.70
2019-01-23T00:50:35.205Z,-6.70
2019-01-23T00:52:36.569Z,-6.80
2019-01-23T00:54:38.099Z,-6.80
2019-01-23T00:56:39.562Z,-6.80
2019-01-23T00:58:41.111Z,-6.80
2019-01-23T01:00:42.517Z,-6.80
2019-01-23T01:02:43.981Z,-6.80
2019-01-23T01:04:45.347Z,-6.80
2019-01-23T01:06:46.763Z,-6.80
2019-01-23T01:08:48.130Z,-6.80
2019-01-23T01:10:49.522Z,-6.80
2019-01-23T01:12:50.882Z,-6.80
2019-01-23T01:14:52.273Z,-6.90
2019-01-23T01:16:54.030Z,-6.90
2019-01-23T01:18:55.398Z,-6.90
2019-01-23T01:20:56.752Z,-6.90
2019-01-23T01:22:58.155Z,-6.90
2019-01-23T01:24:59.509Z,-6.90
2019-01-23T01:27:00.866Z,-6.90
2019-01-23T01:29:02.259Z,-6.90
2019-01-23T01:31:03.724Z,-6.90
2019-01-23T01:33:05.129Z,-6.90
2019-01-23T01:35:06.787Z,-6.90
2019-01-23T01:37:08.186Z,-6.90
2019-01-23T01:39:09.534Z,-6.90
2019-01-23T01:41:10.896Z,-6.90
2019-01-23T01:43:12.291Z,-7.00
2019-01-23T01:45:15.581Z,-6.90
2019-01-23T01:47:16.971Z,-7.00
2019-01-23T01:49:18.398Z,-7.00
2019-01-23T01:51:20.001Z,-7.00
2019-01-23T01:53:21.369Z,-7.00
2019-01-23T01:55:22.727Z,-6.90
2019-01-23T01:57:24.220Z,-6.90
2019-01-23T01:59:25.577Z,-7.00
2019-01-23T02:01:26.975Z,-7.00
2019-01-23T02:03:28.343Z,-6.90
2019-01-23T02:05:29.702Z,-6.90
2019-01-23T02:07:31.105Z,-6.90
2019-01-23T02:09:35.514Z,-7.00
2019-01-23T02:11:35.771Z,-7.00
2019-01-23T02:13:37.137Z,-7.00
2019-01-23T02:15:38.709Z,-7.00
2019-01-23T02:17:40.066Z,-7.00
2019-01-23T02:19:41.425Z,-7.00
2019-01-23T02:21:42.850Z,-7.00
2019-01-23T02:23:44.210Z,-7.00
2019-01-23T02:25:45.605Z,-7.00
2019-01-23T02:27:47.475Z,-7.00
2019-01-23T02:29:48.836Z,-7.00
2019-01-23T02:31:50.224Z,-7.00
2019-01-23T02:33:51.583Z,-7.10
2019-01-23T02:35:52.937Z,-7.10
2019-01-23T02:37:54.339Z,-7.10
2019-01-23T02:39:55.691Z,-7.10
2019-01-23T02:41:57.065Z,-7.10
2019-01-23T02:43:58.508Z,-7.10
2019-01-23T02:46:00.166Z,-7.00
2019-01-23T02:48:01.563Z,-7.00
2019-01-23T02:50:07.418Z,-7.00
2019-01-23T02:52:08.824Z,-7.00
2019-01-23T02:54:10.184Z,-7.00
2019-01-23T02:56:11.585Z,-6.90
2019-01-23T02:58:12.947Z,-6.90
2019-01-23T03:00:18.327Z,-6.90
2019-01-23T03:02:19.722Z,-6.80
2019-01-23T03:04:21.079Z,-6.80
2019-01-23T03:06:22.438Z,-6.80
2019-01-23T03:08:23.879Z,-6.80
2019-01-23T03:10:25.309Z,-6.70
2019-01-23T03:12:26.955Z,-6.70
2019-01-23T03:14:28.403Z,-6.70
2019-01-23T03:16:29.771Z,-6.70
2019-01-23T03:18:31.185Z,-6.70
2019-01-23T03:20:32.579Z,-6.60
2019-01-23T03:22:33.933Z,-6.60
2019-01-23T03:24:35.339Z,-6.60
2019-01-23T03:26:36.737Z,-6.60
2019-01-23T03:28:38.086Z,-6.60
2019-01-23T03:30:39.504Z,-6.60
2019-01-23T03:32:40.887Z,-6.60
2019-01-23T03:34:42.326Z,-6.60
2019-01-23T03:36:43.718Z,-6.60
2019-01-23T03:38:45.068Z,-6.50
2019-01-23T03:40:46.469Z,-6.50
2019-01-23T03:42:47.855Z,-6.50
2019-01-23T03:44:49.524Z,-6.50
2019-01-23T03:46:50.898Z,-6.50
2019-01-23T03:48:52.326Z,-6.50
2019-01-23T03:50:53.761Z,-6.50
2019-01-23T03:52:55.146Z,-6.50
2019-01-23T03:54:56.529Z,-6.50
2019-01-23T03:56:57.886Z,-6.50
2019-01-23T03:58:59.222Z,-6.40
2019-01-23T04:01:00.601Z,-6.50
2019-01-23T04:03:01.954Z,-6.50
2019-01-23T04:05:07.401Z,-6.50
2019-01-23T04:07:08.790Z,-6.50
2019-01-23T04:09:10.152Z,-6.50
2019-01-23T04:11:11.497Z,-6.50
2019-01-23T04:13:12.896Z,-6.60
2019-01-23T04:15:15.845Z,-6.60
2019-01-23T04:17:17.227Z,-6.60
2019-01-23T04:19:18.629Z,-6.60
2019-01-23T04:21:20.000Z,-6.60
2019-01-23T04:23:21.368Z,-6.60
2019-01-23T04:25:22.963Z,-6.50
2019-01-23T04:27:24.307Z,-6.50
2019-01-23T04:29:25.645Z,-6.50
2019-01-23T04:31:27.234Z,-6.60
2019-01-23T04:33:28.592Z,-6.60
2019-01-23T04:35:29.935Z,-6.60
2019-01-23T04:37:31.330Z,-6.60
2019-01-23T04:39:32.686Z,-6.60
2019-01-23T04:41:34.075Z,-6.70
2019-01-23T04:43:35.459Z,-6.70
2019-01-23T04:45:36.826Z,-6.70
2019-01-23T04:47:38.225Z,-6.70
2019-01-23T04:49:39.578Z,-6.70
2019-01-23T04:51:42.855Z,-6.70
2019-01-23T04:53:45.557Z,-6.70
2019-01-23T04:55:46.893Z,-6.70
2019-01-23T04:57:48.255Z,-6.70
2019-01-23T04:59:49.659Z,-6.70
2019-01-23T05:01:50.993Z,-6.70
2019-01-23T05:03:52.350Z,-6.70
2019-01-23T05:05:53.737Z,-6.70
2019-01-23T05:08:10.209Z,-6.70
2019-01-23T05:10:11.779Z,-6.70
2019-01-23T05:12:13.193Z,-6.70
2019-01-23T05:14:14.590Z,-6.70
2019-01-23T05:16:15.942Z,-6.70
2019-01-23T05:18:17.291Z,-6.70
2019-01-23T05:20:18.673Z,-6.60
2019-01-23T05:22:20.078Z,-6.60
2019-01-23T05:24:21.420Z,-6.70
2019-01-23T05:26:22.784Z,-6.60
2019-01-23T05:28:24.159Z,-6.60
2019-01-23T05:30:25.611Z,-6.70
2019-01-23T05:32:27.003Z,-6.70
2019-01-23T05:34:28.395Z,-6.60
2019-01-23T05:36:29.754Z,-6.60
2019-01-23T05:38:31.118Z,-6.60
2019-01-23T05:40:32.514Z,-6.60
2019-01-23T05:42:33.872Z,-6.60
2019-01-23T05:44:35.266Z,-6.60
2019-01-23T05:46:36.639Z,-6.60
2019-01-23T05:48:37.984Z,-6.60
2019-01-23T05:50:39.437Z,-6.60
2019-01-23T05:52:40.898Z,-6.60
2019-01-23T05:54:42.258Z,-6.60
2019-01-23T05:56:43.686Z,-6.60
2019-01-23T05:58:45.081Z,-6.60
2019-01-23T06:00:47.449Z,-6.60
2019-01-23T06:02:48.837Z,-6.50
2019-01-23T06:04:50.172Z,-6.50
2019-01-23T06:06:51.558Z,-6.50
2019-01-23T06:08:52.929Z,-6.60
2019-01-23T06:10:54.311Z,-6.60
2019-01-23T06:12:55.661Z,-6.60
2019-01-23T06:14:57.005Z,-6.70
2019-01-23T06:16:58.569Z,-6.60
2019-01-23T06:18:59.915Z,-6.70
2019-01-23T06:21:01.259Z,-6.70
2019-01-23T06:23:02.727Z,-6.70
2019-01-23T06:25:05.073Z,-6.70
2019-01-23T06:27:06.418Z,-6.60
2019-01-23T06:29:07.901Z,-6.60
2019-01-23T06:31:09.238Z,-6.60
2019-01-23T06:33:10.605Z,-6.70
2019-01-23T06:35:12.286Z,-6.60
2019-01-23T06:37:13.627Z,-6.60
2019-01-23T06:39:14.972Z,-6.60
2019-01-23T06:41:16.378Z,-6.60
2019-01-23T06:43:17.766Z,-6.50
2019-01-23T06:45:19.150Z,-6.50
2019-01-23T06:47:20.558Z,-6.50
2019-01-23T06:49:21.915Z,-6.50
2019-01-23T06:51:23.271Z,-6.50
2019-01-23T06:53:24.860Z,-6.50
2019-01-23T06:55:26.198Z,-6.50
2019-01-23T06:57:27.563Z,-6.50
2019-01-23T06:59:28.986Z,-6.50
2019-01-23T07:01:30.351Z,-6.50
2019-01-23T07:03:31.695Z,-6.40
2019-01-23T07:05:33.106Z,-6.40
2019-01-23T07:07:34.487Z,-6.40
2019-01-23T07:09:35.857Z,-6.40
2019-01-23T07:11:37.586Z,-6.50
2019-01-23T07:13:39.001Z,-6.50
2019-01-23T07:15:40.403Z,-6.40
2019-01-23T07:17:41.955Z,-6.40
2019-01-23T07:19:43.309Z,-6.40
2019-01-23T07:21:44.676Z,-6.40
2019-01-23T07:23:46.129Z,-6.40
2019-01-23T07:25:47.491Z,-6.40
2019-01-23T07:27:48.853Z,-6.30
2019-01-23T07:29:50.263Z,-6.30
2019-01-23T07:31:51.627Z,-6.30
2019-01-23T07:33:52.992Z,-6.30
2019-01-23T07:35:54.383Z,-6.30
2019-01-23T07:37:55.739Z,-6.30
2019-01-23T07:39:57.089Z,-6.30
2019-01-23T07:41:58.515Z,-6.30
2019-01-23T07:43:59.875Z,-6.30
2019-01-23T07:46:01.560Z,-6.20
2019-01-23T07:48:03.267Z,-6.20
2019-01-23T07:50:09.022Z,-6.20
2019-01-23T07:52:10.369Z,-6.20
2019-01-23T07:54:11.775Z,-6.20
2019-01-23T07:56:13.136Z,-6.20
2019-01-23T07:58:14.535Z,-6.20
2019-01-23T08:00:20.196Z,-6.10
2019-01-23T08:02:21.549Z,-6.20
2019-01-23T08:04:22.949Z,-6.20
2019-01-23T08:06:24.327Z,-6.20
2019-01-23T08:08:25.695Z,-6.30
2019-01-23T08:10:27.111Z,-6.30
2019-01-23T08:12:28.789Z,-6.20
2019-01-23T08:14:30.132Z,-6.20
2019-01-23T08:16:31.535Z,-6.10
2019-01-23T08:18:32.905Z,-6.10
2019-01-23T08:20:34.385Z,-6.10
2019-01-23T08:22:35.928Z,-6.10
2019-01-23T08:24:37.339Z,-6.10
2019-01-23T08:26:39.210Z,-6.10
2019-01-23T08:28:40.811Z,-6.10
2019-01-23T08:30:42.153Z,-6.00
2019-01-23T08:32:43.622Z,-6.00
2019-01-23T08:34:45.206Z,-6.00
2019-01-23T08:36:46.557Z,-6.00
2019-01-23T08:38:47.899Z,-5.90
2019-01-23T08:40:49.311Z,-5.90
2019-01-23T08:42:50.659Z,-5.90
2019-01-23T08:44:52.004Z,-5.90
2019-01-23T08:46:53.408Z,-5.90
2019-01-23T08:48:54.772Z,-5.90
2019-01-23T08:50:56.129Z,-5.80
2019-01-23T08:52:57.520Z,-5.80
2019-01-23T08:54:58.878Z,-5.80
2019-01-23T08:57:00.413Z,-5.80
2019-01-23T08:59:01.853Z,-5.80
2019-01-23T09:01:03.299Z,-5.70
2019-01-23T09:03:04.699Z,-5.80
2019-01-23T09:05:08.563Z,-5.80
2019-01-23T09:07:09.905Z,-5.70
2019-01-23T09:09:11.333Z,-5.70
2019-01-23T09:11:12.690Z,-5.70
2019-01-23T09:13:14.554Z,-5.60
2019-01-23T09:15:16.474Z,-5.50
2019-01-23T09:17:17.819Z,-5.60
2019-01-23T09:19:19.164Z,-5.50
2019-01-23T09:21:20.584Z,-5.40
2019-01-23T09:23:21.926Z,-5.50
2019-01-23T09:25:25.832Z,-5.40
2019-01-23T09:27:27.315Z,-5.50
2019-01-23T09:29:28.649Z,-5.40
2019-01-23T09:31:35.726Z,-5.40
2019-01-23T09:33:43.020Z,-5.40
2019-01-23T09:35:53.290Z,-5.40
2019-01-23T09:38:06.101Z,-5.40
2019-01-23T09:40:25.618Z,-5.30
2019-01-23T09:42:47.281Z,-5.30
2019-01-23T09:45:14.230Z,-5.30
2019-01-23T09:47:29.682Z,-5.30
2019-01-23T09:49:36.734Z,-5.30
2019-01-23T09:52:12.882Z,-5.30
2019-01-23T09:54:14.322Z,-5.20
2019-01-23T09:56:15.688Z,-5.10
2019-01-23T09:58:17.104Z,-5.10
2019-01-23T10:00:23.193Z,-5.00
2019-01-23T10:02:24.553Z,-5.00
2019-01-23T10:04:26.098Z,-5.00
2019-01-23T10:06:27.467Z,-5.00
2019-01-23T10:08:28.842Z,-5.00
2019-01-23T10:10:30.218Z,-4.90
2019-01-23T10:12:31.558Z,-4.90
2019-01-23T10:14:32.924Z,-4.90
2019-01-23T10:16:34.778Z,-4.80
2019-01-23T10:18:36.135Z,-4.80
2019-01-23T10:20:37.490Z,-4.70
2019-01-23T10:22:39.016Z,-4.70
2019-01-23T10:24:40.440Z,-4.60
2019-01-23T10:26:41.843Z,-4.60
2019-01-23T10:28:43.252Z,-4.60
2019-01-23T10:30:44.605Z,-4.50
2019-01-23T10:32:45.948Z,-4.40
2019-01-23T10:34:47.364Z,-4.40
2019-01-23T10:36:50.293Z,-4.30
2019-01-23T10:38:51.659Z,-4.30
2019-01-23T10:40:53.053Z,-4.20
2019-01-23T10:42:54.410Z,-4.20
2019-01-23T10:44:56.049Z,-4.10
2019-01-23T10:46:57.457Z,-4.10
2019-01-23T10:48:58.826Z,-4.10
2019-01-23T10:51:00.225Z,-4.10
2019-01-23T10:53:01.569Z,-4.20
2019-01-23T10:55:05.320Z,-4.20
2019-01-23T10:57:06.822Z,-4.20
2019-01-23T10:59:08.176Z,-4.30
2019-01-23T11:01:13.325Z,-4.20
2019-01-23T11:03:12.867Z,-4.40
2019-01-23T11:05:18.334Z,-4.40
2019-01-23T11:07:19.780Z,-4.50
2019-01-23T11:09:21.281Z,-4.60
2019-01-23T11:11:22.635Z,-4.70
2019-01-23T11:13:23.973Z,-4.80
2019-01-23T11:15:26.317Z,-4.70
2019-01-23T11:17:27.811Z,-4.70
2019-01-23T11:19:29.239Z,-4.60
2019-01-23T11:21:30.976Z,-4.50
2019-01-23T11:23:32.421Z,-4.40
2019-01-23T11:25:35.687Z,-4.50
2019-01-23T11:27:37.251Z,-4.50
2019-01-23T11:29:38.797Z,-4.50
2019-01-23T11:31:40.283Z,-4.50
2019-01-23T11:33:41.645Z,-4.50
2019-01-23T11:35:43.087Z,-4.60
2019-01-23T11:37:44.990Z,-4.60
2019-01-23T11:39:46.343Z,-4.60
2019-01-23T11:41:47.697Z,-4.50
2019-01-23T11:43:51.009Z,-4.40
2019-01-23T11:45:52.365Z,-4.20
2019-01-23T11:47:53.833Z,-4.10
2019-01-23T11:49:55.244Z,-3.90
2019-01-23T11:51:56.626Z,-3.80
2019-01-23T11:53:57.985Z,-3.70
2019-01-23T11:55:59.766Z,-3.60
2019-01-23T11:58:01.130Z,-3.50
2019-01-23T12:00:15.998Z,-3.50
2019-01-23T12:02:17.404Z,-3.40
2019-01-23T12:04:18.753Z,-3.40
2019-01-23T12:06:20.163Z,-3.30
2019-01-23T12:08:21.651Z,-3.30
2019-01-23T12:10:23.505Z,-3.20
2019-01-23T12:12:24.900Z,-3.10
2019-01-23T12:14:26.247Z,-3.20
2019-01-23T12:16:27.668Z,-3.30
2019-01-23T12:18:29.052Z,-3.30
2019-01-23T12:20:30.616Z,-3.30
2019-01-23T12:22:31.976Z,-3.30
2019-01-23T12:24:33.322Z,-3.20
2019-01-23T12:26:34.716Z,-3.20
2019-01-23T12:28:36.118Z,-3.20
2019-01-23T12:30:37.563Z,-3.30
2019-01-23T12:32:38.980Z,-3.30
2019-01-23T12:34:40.418Z,-3.30
2019-01-23T12:36:41.804Z,-3.40
2019-01-23T12:38:43.149Z,-3.40
2019-01-23T12:40:44.501Z,-3.50
2019-01-23T12:42:46.168Z,-3.50
2019-01-23T12:44:47.525Z,-3.50
2019-01-23T12:46:48.901Z,-3.50
2019-01-23T12:48:50.295Z,-3.50
2019-01-23T12:50:51.744Z,-3.40
2019-01-23T12:52:53.196Z,-3.40
2019-01-23T12:54:54.612Z,-3.40
2019-01-23T12:56:55.972Z,-3.30
2019-01-23T12:58:57.327Z,-3.20
2019-01-23T13:00:58.764Z,-3.10
2019-01-23T13:03:00.230Z,-3.10
2019-01-23T13:05:01.692Z,-3.10
2019-01-23T13:07:03.520Z,-3.10
2019-01-23T13:09:06.383Z,-3.10
2019-01-23T13:11:07.745Z,-3.20
2019-01-23T13:13:09.263Z,-3.10
2019-01-23T13:15:17.793Z,-3.30
2019-01-23T13:17:20.468Z,-3.30
2019-01-23T13:19:22.254Z,-3.50
2019-01-23T13:21:23.920Z,-3.60
2019-01-23T13:23:25.279Z,-3.60
2019-01-23T13:25:28.481Z,-3.50
2019-01-23T13:27:50.033Z,-3.60
2019-01-23T13:30:33.139Z,-3.70
2019-01-23T13:32:54.479Z,-3.80
2019-01-23T13:35:38.762Z,-3.90
2019-01-23T13:38:00.417Z,-4.00
2019-01-23T13:40:43.479Z,-4.00
2019-01-23T13:43:05.659Z,-3.90
2019-01-23T13:45:26.911Z,-4.00
2019-01-23T13:47:48.422Z,-4.30
2019-01-23T13:53:13.330Z,-4.40
2019-01-23T13:55:34.593Z,-4.60
2019-01-23T13:57:55.851Z,-4.70
2019-01-23T14:00:38.035Z,-4.60
2019-01-23T14:02:59.421Z,-4.70
2019-01-23T14:05:20.742Z,-4.80
2019-01-23T14:07:42.062Z,-5.00
2019-01-23T14:10:25.081Z,-5.00
2019-01-23T14:12:46.485Z,-5.00
2019-01-23T14:17:00.619Z,-5.10
2019-01-23T14:19:16.016Z,-5.10
2019-01-23T14:21:37.272Z,-5.10
2019-01-23T14:23:58.521Z,-5.10
2019-01-23T14:26:19.870Z,-5.10
2019-01-23T14:28:41.132Z,-5.10
2019-01-23T14:31:02.478Z,-5.10
2019-01-23T14:33:24.067Z,-5.20
2019-01-23T14:35:45.326Z,-5.40
2019-01-23T14:38:06.888Z,-5.30
2019-01-23T14:40:28.596Z,-5.30
2019-01-23T14:42:49.864Z,-5.30
2019-01-23T14:45:32.931Z,-5.20
2019-01-23T14:47:54.261Z,-5.30
2019-01-23T14:50:35.394Z,-5.50
2019-01-23T14:52:56.981Z,-5.60
2019-01-23T14:55:18.265Z,-5.50
2019-01-23T14:57:40.194Z,-5.60
2019-01-23T15:00:01.753Z,-5.60
2019-01-23T15:02:23.073Z,-5.60
2019-01-23T15:04:44.319Z,-5.60
2019-01-23T15:07:05.633Z,-5.60
2019-01-23T15:09:26.960Z,-5.60
2019-01-23T15:11:48.205Z,-5.60
2019-01-23T15:14:09.478Z,-5.70
2019-01-23T15:16:30.944Z,-5.70
2019-01-23T15:18:52.188Z,-5.70
2019-01-23T15:21:07.156Z,-5.70
2019-01-23T15:23:28.492Z,-5.80
2019-01-23T15:25:49.755Z,-5.80
2019-01-23T15:28:11.080Z,-5.70
2019-01-23T15:30:32.535Z,-5.80
2019-01-23T15:32:53.791Z,-5.80
2019-01-23T15:35:15.823Z,-5.90
2019-01-23T15:37:37.189Z,-5.90
2019-01-23T15:39:58.439Z,-6.00
2019-01-23T15:42:19.768Z,-5.90
2019-01-23T15:44:41.011Z,-5.90
2019-01-23T15:47:02.460Z,-5.90
2019-01-23T15:49:03.977Z,-5.90
2019-01-23T15:51:25.248Z,-5.90
2019-01-23T15:53:46.490Z,-5.80
2019-01-23T15:56:07.813Z,-5.90
2019-01-23T15:58:29.067Z,-5.90
2019-01-23T16:00:50.639Z,-5.90
2019-01-23T16:03:11.949Z,-5.90
2019-01-23T16:05:33.209Z,-5.90
2019-01-23T16:07:54.461Z,-6.00
2019-01-23T16:10:37.793Z,-6.00
2019-01-23T16:12:59.057Z,-5.90
2019-01-23T16:18:30.298Z,-6.00
2019-01-23T16:20:51.560Z,-5.90
2019-01-23T16:23:06.401Z,-6.00
2019-01-23T16:25:27.786Z,-6.00
2019-01-23T16:27:49.057Z,-5.90
2019-01-23T16:30:32.158Z,-5.90
2019-01-23T16:32:53.418Z,-5.90
2019-01-23T16:35:14.759Z,-5.90
2019-01-23T16:37:36.196Z,-5.90
2019-01-23T16:39:57.453Z,-5.80
2019-01-23T16:42:18.710Z,-5.80
2019-01-23T16:44:40.035Z,-5.80
2019-01-23T16:47:01.304Z,-5.80
2019-01-23T16:49:22.565Z,-5.80
2019-01-23T16:51:43.939Z,-5.80
2019-01-23T16:54:05.238Z,-5.80
2019-01-23T16:56:26.503Z,-5.80
2019-01-23T16:58:47.899Z,-5.80
2019-01-23T17:01:09.244Z,-5.80
2019-01-23T17:03:30.509Z,-5.80
2019-01-23T17:05:51.936Z,-5.80
2019-01-23T17:08:13.178Z,-5.80
2019-01-23T17:10:34.536Z,-5.70
2019-01-23T17:12:56.256Z,-5.80
2019-01-23T17:15:17.516Z,-5.70
2019-01-23T17:17:38.849Z,-5.70
2019-01-23T17:20:00.332Z,-5.70
2019-01-23T17:22:21.591Z,-5.80
2019-01-23T17:24:36.853Z,-5.80
2019-01-23T17:26:58.492Z,-5.70
2019-01-23T17:29:19.779Z,-5.70
2019-01-23T17:31:41.067Z,-5.70
2019-01-23T17:34:02.573Z,-5.70
2019-01-23T17:36:23.833Z,-5.70
2019-01-23T17:38:45.225Z,-5.70
2019-01-23T17:40:46.827Z,-5.60
2019-01-23T17:43:08.664Z,-5.70
2019-01-23T17:45:49.845Z,-5.70
2019-01-23T17:48:11.423Z,-5.60
2019-01-23T17:50:32.725Z,-5.70
2019-01-23T17:52:54.078Z,-5.70
2019-01-23T17:55:37.390Z,-5.70
2019-01-23T17:57:58.735Z,-5.70
2019-01-23T18:03:30.550Z,-5.70
2019-01-23T18:05:31.948Z,-5.70
2019-01-23T18:07:53.271Z,-5.70
2019-01-23T18:10:14.929Z,-5.70
2019-01-23T18:12:36.191Z,-5.70
2019-01-23T18:14:57.502Z,-5.80
2019-01-23T18:17:18.741Z,-5.80
2019-01-23T18:19:40.020Z,-5.80
2019-01-23T18:22:01.451Z,-5.80
2019-01-23T18:24:22.773Z,-5.80
2019-01-23T18:26:37.669Z,-5.80
2019-01-23T18:28:59.068Z,-5.80
2019-01-23T18:31:42.086Z,-5.80
2019-01-23T18:34:25.197Z,-5.80
2019-01-23T18:37:08.201Z,-5.70
2019-01-23T18:40:09.292Z,-5.80
2019-01-23T18:43:10.308Z,-5.80
2019-01-23T18:45:53.418Z,-5.80
2019-01-23T18:48:36.491Z,-5.70
2019-01-23T18:51:18.901Z,-5.70
2019-01-23T18:53:40.509Z,-5.70
2019-01-23T18:55:55.117Z,-5.70
2019-01-23T18:58:16.414Z,-5.70
2019-01-23T19:00:37.749Z,-5.70
2019-01-23T19:02:57.619Z,-5.60
2019-01-23T19:04:59.167Z,-5.60
2019-01-23T19:07:00.606Z,-5.60
2019-01-23T19:09:05.732Z,-5.60
2019-01-23T19:11:07.081Z,-5.60
2019-01-23T19:13:08.443Z,-5.50
2019-01-23T19:15:15.134Z,-5.60
2019-01-23T19:17:16.473Z,-5.50
2019-01-23T19:19:17.843Z,-5.50
2019-01-23T19:21:19.257Z,-5.50
2019-01-23T19:23:20.696Z,-5.50
2019-01-23T19:25:22.028Z,-5.50
2019-01-23T19:27:23.384Z,-5.50
2019-01-23T19:29:25.226Z,-5.50
2019-01-23T19:31:26.563Z,-5.40
2019-01-23T19:33:27.988Z,-5.40
2019-01-23T19:35:29.462Z,-5.40
2019-01-23T19:37:31.034Z,-5.40
2019-01-23T19:39:32.616Z,-5.40
2019-01-23T19:41:34.157Z,-5.40
2019-01-23T19:43:35.558Z,-5.40
2019-01-23T19:45:37.203Z,-5.40
2019-01-23T19:47:39.026Z,-5.30
2019-01-23T19:49:40.636Z,-5.30
2019-01-23T19:51:42.231Z,-5.30
2019-01-23T19:53:44.038Z,-5.30
2019-01-23T19:55:45.862Z,-5.30
2019-01-23T19:57:47.791Z,-5.20
2019-01-23T19:59:49.792Z,-5.20
2019-01-23T20:01:51.281Z,-5.20
2019-01-23T20:03:52.918Z,-5.20
2019-01-23T20:05:54.358Z,-5.20
2019-01-23T20:07:55.748Z,-5.20
2019-01-23T20:09:57.171Z,-5.20
2019-01-23T20:11:58.515Z,-5.10
2019-01-23T20:13:59.861Z,-5.10
2019-01-23T20:16:01.372Z,-5.10
2019-01-23T20:18:03.575Z,-5.10
2019-01-23T20:20:10.109Z,-5.10
2019-01-23T20:22:11.470Z,-5.10
2019-01-23T20:24:12.834Z,-5.00
2019-01-23T20:26:14.221Z,-5.00
2019-01-23T20:28:15.578Z,-5.00
2019-01-23T20:30:25.235Z,-5.00
2019-01-23T20:32:26.656Z,-5.00
2019-01-23T20:34:28.025Z,-5.00
2019-01-23T20:36:29.408Z,-5.00
2019-01-23T20:38:31.096Z,-4.90
2019-01-23T20:40:32.815Z,-4.90
2019-01-23T20:42:34.195Z,-4.90
2019-01-23T20:44:35.605Z,-4.90
2019-01-23T20:46:36.996Z,-4.90
2019-01-23T20:48:38.380Z,-4.90
2019-01-23T20:50:39.783Z,-4.90
2019-01-23T20:52:41.290Z,-4.80
2019-01-23T20:54:42.718Z,-4.80
2019-01-23T20:56:44.067Z,-4.80
2019-01-23T20:58:45.452Z,-4.80
2019-01-23T21:00:47.083Z,-4.80
2019-01-23T21:02:48.447Z,-4.80
2019-01-23T21:04:49.826Z,-4.80
2019-01-23T21:06:51.244Z,-4.70
2019-01-23T21:08:52.616Z,-4.70
2019-01-23T21:10:53.971Z,-4.70
2019-01-23T21:12:55.391Z,-4.70
2019-01-23T21:14:56.804Z,-4.70
2019-01-23T21:16:58.177Z,-4.70
2019-01-23T21:18:59.600Z,-4.70
2019-01-23T21:21:00.964Z,-4.70
2019-01-23T21:23:02.864Z,-4.70
2019-01-23T21:25:07.435Z,-4.60
2019-01-23T21:27:08.806Z,-4.60
2019-01-23T21:29:10.212Z,-4.60
2019-01-23T21:31:11.563Z,-4.60
2019-01-23T21:33:12.918Z,-4.60
2019-01-23T21:35:15.028Z,-4.50
2019-01-23T21:37:16.366Z,-4.50
2019-01-23T21:39:17.730Z,-4.50
2019-01-23T21:41:19.224Z,-4.50
2019-01-23T21:43:20.640Z,-4.50
2019-01-23T21:45:22.032Z,-4.50
2019-01-23T21:47:23.599Z,-4.50
2019-01-23T21:49:24.939Z,-4.50
2019-01-23T21:51:26.452Z,-4.50
2019-01-23T21:53:27.809Z,-4.40
2019-01-23T21:55:29.256Z,-4.50
2019-01-23T21:57:30.668Z,-4.40
2019-01-23T21:59:32.214Z,-4.40
2019-01-23T22:01:33.571Z,-4.40
2019-01-23T22:03:34.920Z,-4.40
2019-01-23T22:05:36.517Z,-4.40
2019-01-23T22:07:37.872Z,-4.40
2019-01-23T22:09:39.208Z,-4.30
2019-01-23T22:11:43.726Z,-4.30
2019-01-23T22:13:43.954Z,-4.30
2019-01-23T22:15:45.312Z,-4.30
2019-01-23T22:17:46.654Z,-4.20
2019-01-23T22:19:49.123Z,-4.20
2019-01-23T22:21:50.461Z,-4.20
2019-01-23T22:23:51.817Z,-4.20
2019-01-23T22:25:54.362Z,-4.20
2019-01-23T22:27:55.930Z,-4.10
2019-01-23T22:29:57.276Z,-4.10
2019-01-23T22:32:00.531Z,-4.10
2019-01-23T22:34:01.980Z,-4.10
2019-01-23T22:36:03.442Z,-4.10
2019-01-23T22:38:05.193Z,-4.00
2019-01-23T22:40:16.551Z,-4.00
2019-01-23T22:42:17.913Z,-4.00
2019-01-23T22:44:19.259Z,-4.00
2019-01-23T22:46:22.567Z,-4.00
2019-01-23T22:48:23.905Z,-4.00
2019-01-23T22:50:26.372Z,-3.90
2019-01-23T22:52:27.786Z,-3.90
2019-01-23T22:54:29.148Z,-3.90
2019-01-23T22:56:30.511Z,-3.90
2019-01-23T22:58:32.237Z,-3.90
2019-01-23T23:00:40.136Z,-3.90
2019-01-23T23:02:41.495Z,-3.90
2019-01-23T23:04:42.893Z,-3.90
2019-01-23T23:06:44.251Z,-3.90
2019-01-23T23:08:45.611Z,-3.90
2019-01-23T23:10:47.023Z,-3.90
2019-01-23T23:12:48.370Z,-3.80
2019-01-23T23:14:49.809Z,-3.80
2019-01-23T23:16:52.244Z,-3.80
2019-01-23T23:18:53.578Z,-3.80
2019-01-23T23:20:54.920Z,-3.70
2019-01-23T23:22:56.330Z,-3.80
2019-01-23T23:24:57.686Z,-3.80
2019-01-23T23:26:59.050Z,-3.70
2019-01-23T23:29:00.552Z,-3.80
2019-01-23T23:31:02.131Z,-3.80
2019-01-23T23:33:03.825Z,-3.70
2019-01-23T23:35:06.050Z,-3.70
2019-01-23T23:37:07.469Z,-3.80
2019-01-23T23:39:08.803Z,-3.70
2019-01-23T23:41:10.165Z,-3.70
2019-01-23T23:43:11.683Z,-3.70
2019-01-23T23:45:16.618Z,-3.70
2019-01-23T23:47:17.983Z,-3.70
2019-01-23T23:49:19.422Z,-3.70
2019-01-23T23:51:20.780Z,-3.60
2019-01-23T23:53:22.135Z,-3.60
2019-01-23T23:55:23.546Z,-3.70
2019-01-23T23:57:25.969Z,-3.70
2019-01-23T23:59:28.364Z,-3.60
